THA564 VTBS-VVNB
Flight info
| Callsign | THA564 |
|---|---|
| Flight time | 1h 31m |
| Altitude | 39000 |
| Route | ALBOS1G ALBOS R474 LAVOS/K0813F390 R474 MC MC3H |
| Aircraft | A20N/M-SDE2E3FGHIRWXY/LB1 |
Departure
| Time | 2026-05-01 11:00 |
|---|---|
| Airport | Suvarnabhumi Airport (VTBS) |
Arrival
| Time | 2026-05-01 12:32 |
|---|---|
| Airport | Noi Bai International Airport (VVNB) |
| Time | Latitude | Longitude | Altitude | Speed | Heading |
|---|---|---|---|---|---|
| 2026-05-01 10:21 | 13.69351 | 100.74519 | 8 ft | 0 kts | 194° |
| 2026-05-01 10:49 | 13.69354 | 100.74519 | -20 ft | 2 kts | 194° |
| 2026-05-01 10:49 | 13.69374 | 100.74525 | -7 ft | 3 kts | 197° |
| 2026-05-01 10:49 | 13.69395 | 100.74532 | 11 ft | 3 kts | 202° |
| 2026-05-01 10:50 | 13.69415 | 100.74541 | 8 ft | 3 kts | 213° |
| 2026-05-01 10:50 | 13.69430 | 100.74555 | 9 ft | 3 kts | 251° |
| 2026-05-01 10:50 | 13.69432 | 100.74565 | 9 ft | 1 kts | 287° |
| 2026-05-01 10:54 | 13.69433 | 100.74563 | 8 ft | 2 kts | 287° |
| 2026-05-01 10:54 | 13.69440 | 100.74540 | 9 ft | 5 kts | 287° |
| 2026-05-01 10:54 | 13.69452 | 100.74494 | 8 ft | 8 kts | 284° |
| 2026-05-01 10:55 | 13.69468 | 100.74430 | 8 ft | 9 kts | 284° |
| 2026-05-01 10:55 | 13.69482 | 100.74371 | 9 ft | 8 kts | 284° |
| 2026-05-01 10:55 | 13.69512 | 100.74307 | 7 ft | 12 kts | 319° |
| 2026-05-01 10:55 | 13.69591 | 100.74307 | 7 ft | 14 kts | 14° |
| 2026-05-01 10:56 | 13.69697 | 100.74334 | 7 ft | 18 kts | 14° |
| 2026-05-01 10:56 | 13.69811 | 100.74363 | 7 ft | 18 kts | 13° |
| 2026-05-01 10:56 | 13.69946 | 100.74396 | 8 ft | 21 kts | 13° |
| 2026-05-01 10:56 | 13.70040 | 100.74419 | 8 ft | 1 kts | 15° |
| 2026-05-01 10:57 | 13.70057 | 100.74424 | 8 ft | 5 kts | 14° |
| 2026-05-01 10:57 | 13.70102 | 100.74436 | 8 ft | 9 kts | 15° |
| 2026-05-01 10:57 | 13.70163 | 100.74453 | 8 ft | 7 kts | 14° |
| 2026-05-01 10:57 | 13.70220 | 100.74439 | 8 ft | 10 kts | 319° |
| 2026-05-01 10:58 | 13.70232 | 100.74409 | 9 ft | 0 kts | 285° |
| 2026-05-01 10:58 | 13.70234 | 100.74402 | 8 ft | 3 kts | 285° |
| 2026-05-01 10:58 | 13.70242 | 100.74370 | 8 ft | 6 kts | 284° |
| 2026-05-01 10:59 | 13.70246 | 100.74315 | 9 ft | 9 kts | 256° |
| 2026-05-01 10:59 | 13.70209 | 100.74282 | 9 ft | 0 kts | 197° |
| 2026-05-01 10:59 | 13.70200 | 100.74279 | 9 ft | 8 kts | 197° |
| 2026-05-01 10:59 | 13.69966 | 100.74211 | 7 ft | 68 kts | 196° |
| 2026-05-01 11:00 | 13.69306 | 100.74039 | 7 ft | 124 kts | 195° |
| 2026-05-01 11:00 | 13.68684 | 100.73879 | 13 ft | 154 kts | 194° |
| 2026-05-01 11:00 | 13.67507 | 100.73593 | 96 ft | 190 kts | 194° |
| 2026-05-01 11:00 | 13.66242 | 100.73315 | 906 ft | 186 kts | 192° |
| 2026-05-01 11:01 | 13.64931 | 100.72981 | 1524 ft | 203 kts | 193° |
| 2026-05-01 11:01 | 13.63507 | 100.72567 | 1954 ft | 222 kts | 195° |
| 2026-05-01 11:01 | 13.61971 | 100.72096 | 2510 ft | 229 kts | 194° |
| 2026-05-01 11:01 | 13.60448 | 100.71691 | 3492 ft | 227 kts | 192° |
| 2026-05-01 11:02 | 13.58915 | 100.71330 | 4460 ft | 224 kts | 191° |
| 2026-05-01 11:02 | 13.57410 | 100.70993 | 5455 ft | 219 kts | 192° |
| 2026-05-01 11:02 | 13.55858 | 100.70564 | 5887 ft | 247 kts | 202° |
| 2026-05-01 11:02 | 13.54382 | 100.69504 | 6016 ft | 270 kts | 227° |
| 2026-05-01 11:03 | 13.53458 | 100.67820 | 6025 ft | 275 kts | 252° |
| 2026-05-01 11:03 | 13.53338 | 100.65857 | 6025 ft | 281 kts | 278° |
| 2026-05-01 11:03 | 13.53825 | 100.63902 | 6205 ft | 284 kts | 283° |
| 2026-05-01 11:03 | 13.54337 | 100.61934 | 6817 ft | 285 kts | 283° |
| 2026-05-01 11:04 | 13.54881 | 100.60006 | 7715 ft | 287 kts | 291° |
| 2026-05-01 11:04 | 13.56039 | 100.58324 | 8524 ft | 295 kts | 317° |
| 2026-05-01 11:04 | 13.57832 | 100.57274 | 9306 ft | 303 kts | 342° |
| 2026-05-01 11:04 | 13.59941 | 100.56991 | 9792 ft | 310 kts | 359° |
| 2026-05-01 11:05 | 13.62102 | 100.57079 | 9958 ft | 311 kts | 4° |
| 2026-05-01 11:05 | 13.64257 | 100.57291 | 10023 ft | 312 kts | 10° |
| 2026-05-01 11:05 | 13.66353 | 100.57952 | 10107 ft | 323 kts | 25° |
| 2026-05-01 11:05 | 13.68321 | 100.59201 | 10295 ft | 345 kts | 40° |
| 2026-05-01 11:06 | 13.70197 | 100.60834 | 10682 ft | 359 kts | 41° |
| 2026-05-01 11:06 | 13.72117 | 100.62492 | 11385 ft | 362 kts | 40° |
| 2026-05-01 11:06 | 13.74064 | 100.64163 | 12080 ft | 366 kts | 40° |
| 2026-05-01 11:07 | 13.78023 | 100.67547 | 13476 ft | 374 kts | 40° |
| 2026-05-01 11:07 | 13.80034 | 100.69265 | 14093 ft | 378 kts | 40° |
| 2026-05-01 11:07 | 13.82061 | 100.70997 | 14739 ft | 380 kts | 40° |
| 2026-05-01 11:07 | 13.84233 | 100.72565 | 15310 ft | 384 kts | 29° |
| 2026-05-01 11:08 | 13.86673 | 100.73712 | 15902 ft | 387 kts | 18° |
| 2026-05-01 11:08 | 13.89268 | 100.74438 | 16559 ft | 388 kts | 13° |
| 2026-05-01 11:08 | 13.94578 | 100.75802 | 17673 ft | 396 kts | 13° |
| 2026-05-01 11:09 | 13.97258 | 100.76500 | 18231 ft | 398 kts | 13° |
| 2026-05-01 11:09 | 13.99949 | 100.77202 | 18764 ft | 400 kts | 13° |
| 2026-05-01 11:09 | 14.02659 | 100.77907 | 19249 ft | 403 kts | 13° |
| 2026-05-01 11:10 | 14.08128 | 100.79330 | 20233 ft | 408 kts | 13° |
| 2026-05-01 11:10 | 14.10892 | 100.80049 | 20712 ft | 411 kts | 13° |
| 2026-05-01 11:10 | 14.13672 | 100.80772 | 21193 ft | 413 kts | 13° |
| 2026-05-01 11:10 | 14.16468 | 100.81500 | 21670 ft | 416 kts | 13° |
| 2026-05-01 11:11 | 14.19282 | 100.82232 | 22137 ft | 419 kts | 13° |
| 2026-05-01 11:11 | 14.22116 | 100.82970 | 22606 ft | 421 kts | 13° |
| 2026-05-01 11:11 | 14.24965 | 100.83712 | 23058 ft | 424 kts | 13° |
| 2026-05-01 11:11 | 14.27834 | 100.84459 | 23485 ft | 427 kts | 13° |
| 2026-05-01 11:12 | 14.30720 | 100.85213 | 23866 ft | 429 kts | 13° |
| 2026-05-01 11:12 | 14.33558 | 100.86178 | 24224 ft | 433 kts | 20° |
| 2026-05-01 11:12 | 14.36373 | 100.87331 | 24577 ft | 436 kts | 20° |
| 2026-05-01 11:12 | 14.39203 | 100.88484 | 24939 ft | 438 kts | 20° |
| 2026-05-01 11:13 | 14.42045 | 100.89638 | 25299 ft | 440 kts | 20° |
| 2026-05-01 11:13 | 14.44865 | 100.90783 | 25649 ft | 442 kts | 20° |
| 2026-05-01 11:13 | 14.47736 | 100.91948 | 25987 ft | 445 kts | 20° |
| 2026-05-01 11:13 | 14.50623 | 100.93121 | 26332 ft | 447 kts | 20° |
| 2026-05-01 11:14 | 14.53520 | 100.94299 | 26662 ft | 449 kts | 20° |
| 2026-05-01 11:14 | 14.56438 | 100.95485 | 26986 ft | 451 kts | 20° |
| 2026-05-01 11:14 | 14.59367 | 100.96676 | 27309 ft | 453 kts | 20° |
| 2026-05-01 11:14 | 14.62307 | 100.97871 | 27621 ft | 456 kts | 20° |
| 2026-05-01 11:15 | 14.65267 | 100.99076 | 27926 ft | 458 kts | 20° |
| 2026-05-01 11:15 | 14.68235 | 101.00284 | 28213 ft | 460 kts | 19° |
| 2026-05-01 11:15 | 14.71223 | 101.01500 | 28470 ft | 463 kts | 19° |
| 2026-05-01 11:15 | 14.74225 | 101.02733 | 28796 ft | 465 kts | 21° |
| 2026-05-01 11:16 | 14.77159 | 101.04168 | 29074 ft | 468 kts | 24° |
| 2026-05-01 11:16 | 14.80092 | 101.05651 | 29352 ft | 470 kts | 24° |
| 2026-05-01 11:16 | 14.83035 | 101.07133 | 29625 ft | 472 kts | 24° |
| 2026-05-01 11:16 | 14.85996 | 101.08623 | 29900 ft | 474 kts | 24° |
| 2026-05-01 11:17 | 14.88968 | 101.10119 | 30141 ft | 476 kts | 24° |
| 2026-05-01 11:17 | 14.91951 | 101.11620 | 30384 ft | 478 kts | 24° |
| 2026-05-01 11:17 | 14.94946 | 101.13130 | 30615 ft | 480 kts | 24° |
| 2026-05-01 11:17 | 14.97917 | 101.14627 | 30858 ft | 482 kts | 24° |
| 2026-05-01 11:18 | 15.00932 | 101.16148 | 31157 ft | 482 kts | 24° |
| 2026-05-01 11:18 | 15.03947 | 101.17669 | 31484 ft | 482 kts | 24° |
| 2026-05-01 11:18 | 15.06958 | 101.19188 | 31807 ft | 482 kts | 24° |
| 2026-05-01 11:18 | 15.09969 | 101.20708 | 32114 ft | 481 kts | 24° |
| 2026-05-01 11:19 | 15.12978 | 101.22227 | 32423 ft | 481 kts | 24° |
| 2026-05-01 11:19 | 15.15981 | 101.23744 | 32737 ft | 480 kts | 24° |
| 2026-05-01 11:19 | 15.18988 | 101.25263 | 33027 ft | 480 kts | 24° |
| 2026-05-01 11:19 | 15.21986 | 101.26779 | 33316 ft | 480 kts | 24° |
| 2026-05-01 11:20 | 15.24985 | 101.28294 | 33605 ft | 479 kts | 24° |
| 2026-05-01 11:20 | 15.27982 | 101.29810 | 33874 ft | 479 kts | 24° |
| 2026-05-01 11:20 | 15.30974 | 101.31323 | 34150 ft | 478 kts | 24° |
| 2026-05-01 11:20 | 15.33960 | 101.32834 | 34399 ft | 477 kts | 24° |
| 2026-05-01 11:21 | 15.36944 | 101.34346 | 34585 ft | 478 kts | 23° |
| 2026-05-01 11:21 | 15.39940 | 101.35863 | 34752 ft | 480 kts | 23° |
| 2026-05-01 11:21 | 15.42935 | 101.37379 | 34979 ft | 479 kts | 23° |
| 2026-05-01 11:21 | 15.45931 | 101.38898 | 35204 ft | 479 kts | 23° |
| 2026-05-01 11:22 | 15.48927 | 101.40416 | 35424 ft | 479 kts | 23° |
| 2026-05-01 11:22 | 15.51917 | 101.41932 | 35661 ft | 479 kts | 23° |
| 2026-05-01 11:22 | 15.54907 | 101.43448 | 35892 ft | 478 kts | 23° |
| 2026-05-01 11:22 | 15.57898 | 101.44966 | 36106 ft | 478 kts | 23° |
| 2026-05-01 11:23 | 15.60887 | 101.46483 | 36336 ft | 478 kts | 23° |
| 2026-05-01 11:23 | 15.63871 | 101.47998 | 36566 ft | 478 kts | 23° |
| 2026-05-01 11:23 | 15.66858 | 101.49515 | 36778 ft | 478 kts | 23° |
| 2026-05-01 11:23 | 15.69840 | 101.51030 | 36984 ft | 478 kts | 23° |
| 2026-05-01 11:24 | 15.72830 | 101.52549 | 37117 ft | 479 kts | 23° |
| 2026-05-01 11:24 | 15.75784 | 101.54051 | 37294 ft | 479 kts | 23° |
| 2026-05-01 11:24 | 15.81766 | 101.57093 | 37683 ft | 479 kts | 23° |
| 2026-05-01 11:25 | 15.84754 | 101.58614 | 37863 ft | 478 kts | 23° |
| 2026-05-01 11:25 | 15.90733 | 101.61658 | 38207 ft | 478 kts | 23° |
| 2026-05-01 11:25 | 15.93722 | 101.63181 | 38363 ft | 478 kts | 23° |
| 2026-05-01 11:26 | 15.96709 | 101.64703 | 38521 ft | 478 kts | 23° |
| 2026-05-01 11:26 | 16.02669 | 101.67741 | 38793 ft | 477 kts | 23° |
| 2026-05-01 11:27 | 16.08640 | 101.70785 | 38976 ft | 479 kts | 23° |
| 2026-05-01 11:27 | 16.11626 | 101.72309 | 39102 ft | 478 kts | 23° |
| 2026-05-01 11:27 | 16.14612 | 101.73834 | 39226 ft | 478 kts | 23° |
| 2026-05-01 11:27 | 16.17591 | 101.75356 | 39327 ft | 478 kts | 23° |
| 2026-05-01 11:28 | 16.20575 | 101.76881 | 39339 ft | 477 kts | 23° |
| 2026-05-01 11:28 | 16.26520 | 101.79919 | 39336 ft | 476 kts | 23° |
| 2026-05-01 11:29 | 16.35434 | 101.84480 | 39348 ft | 476 kts | 23° |
| 2026-05-01 11:30 | 16.44406 | 101.89074 | 39351 ft | 481 kts | 23° |
| 2026-05-01 11:30 | 16.50406 | 101.92151 | 39348 ft | 480 kts | 23° |
| 2026-05-01 11:31 | 16.56398 | 101.95224 | 39345 ft | 480 kts | 23° |
| 2026-05-01 11:31 | 16.62388 | 101.98297 | 39344 ft | 480 kts | 22° |
| 2026-05-01 11:32 | 16.68557 | 102.00884 | 39342 ft | 477 kts | 18° |
| 2026-05-01 11:32 | 16.74761 | 102.03351 | 39339 ft | 478 kts | 17° |
| 2026-05-01 11:33 | 16.80968 | 102.05826 | 39329 ft | 478 kts | 17° |
| 2026-05-01 11:33 | 16.87184 | 102.08305 | 39346 ft | 479 kts | 17° |
| 2026-05-01 11:34 | 16.93420 | 102.10791 | 39345 ft | 480 kts | 17° |
| 2026-05-01 11:34 | 16.99625 | 102.13266 | 39345 ft | 479 kts | 17° |
| 2026-05-01 11:35 | 17.05856 | 102.15755 | 39349 ft | 481 kts | 17° |
| 2026-05-01 11:35 | 17.12121 | 102.18258 | 39345 ft | 482 kts | 17° |
| 2026-05-01 11:36 | 17.18381 | 102.20761 | 39344 ft | 482 kts | 17° |
| 2026-05-01 11:36 | 17.24597 | 102.23249 | 39333 ft | 482 kts | 17° |
| 2026-05-01 11:37 | 17.30854 | 102.25755 | 39331 ft | 481 kts | 17° |
| 2026-05-01 11:37 | 17.37111 | 102.28263 | 39333 ft | 481 kts | 17° |
| 2026-05-01 11:38 | 17.43361 | 102.30770 | 39334 ft | 481 kts | 17° |
| 2026-05-01 11:38 | 17.49613 | 102.33280 | 39326 ft | 481 kts | 17° |
| 2026-05-01 11:39 | 17.55859 | 102.35788 | 39315 ft | 481 kts | 17° |
| 2026-05-01 11:39 | 17.62106 | 102.38300 | 39317 ft | 481 kts | 17° |
| 2026-05-01 11:40 | 17.68352 | 102.40812 | 39315 ft | 480 kts | 17° |
| 2026-05-01 11:40 | 17.74595 | 102.43327 | 39306 ft | 481 kts | 17° |
| 2026-05-01 11:41 | 17.80831 | 102.45839 | 39304 ft | 480 kts | 17° |
| 2026-05-01 11:41 | 17.87077 | 102.48359 | 39301 ft | 480 kts | 17° |
| 2026-05-01 11:42 | 17.93309 | 102.50896 | 39293 ft | 480 kts | 17° |
| 2026-05-01 11:42 | 17.99495 | 102.53564 | 39293 ft | 483 kts | 22° |
| 2026-05-01 11:43 | 18.05287 | 102.57223 | 39291 ft | 489 kts | 32° |
| 2026-05-01 11:43 | 18.10816 | 102.61383 | 39293 ft | 489 kts | 32° |
| 2026-05-01 11:44 | 18.19098 | 102.67578 | 39300 ft | 489 kts | 32° |
| 2026-05-01 11:44 | 18.24643 | 102.71739 | 39308 ft | 490 kts | 32° |
| 2026-05-01 11:45 | 18.30194 | 102.75908 | 39318 ft | 491 kts | 32° |
| 2026-05-01 11:45 | 18.35754 | 102.80088 | 39332 ft | 491 kts | 32° |
| 2026-05-01 11:46 | 18.41316 | 102.84272 | 39349 ft | 492 kts | 32° |
| 2026-05-01 11:46 | 18.46879 | 102.88461 | 39343 ft | 492 kts | 32° |
| 2026-05-01 11:47 | 18.52442 | 102.92654 | 39356 ft | 492 kts | 32° |
| 2026-05-01 11:47 | 18.57999 | 102.96845 | 39372 ft | 490 kts | 32° |
| 2026-05-01 11:48 | 18.62602 | 103.00319 | 39359 ft | 489 kts | 32° |
| 2026-05-01 11:48 | 18.68151 | 103.04510 | 39374 ft | 491 kts | 32° |
| 2026-05-01 11:49 | 18.73701 | 103.08709 | 39384 ft | 489 kts | 32° |
| 2026-05-01 11:49 | 18.79235 | 103.12894 | 39400 ft | 490 kts | 32° |
| 2026-05-01 11:50 | 18.84767 | 103.17082 | 39396 ft | 488 kts | 32° |
| 2026-05-01 11:50 | 18.90292 | 103.21268 | 39388 ft | 489 kts | 32° |
| 2026-05-01 11:51 | 18.95819 | 103.25460 | 39401 ft | 489 kts | 32° |
| 2026-05-01 11:51 | 19.01342 | 103.29652 | 39385 ft | 489 kts | 32° |
| 2026-05-01 11:52 | 19.06861 | 103.33844 | 39389 ft | 488 kts | 32° |
| 2026-05-01 11:52 | 19.12378 | 103.38039 | 39384 ft | 488 kts | 32° |
| 2026-05-01 11:53 | 19.17897 | 103.42240 | 39410 ft | 490 kts | 32° |
| 2026-05-01 11:53 | 19.23452 | 103.46469 | 39408 ft | 492 kts | 32° |
| 2026-05-01 11:54 | 19.28989 | 103.50689 | 39407 ft | 489 kts | 32° |
| 2026-05-01 11:54 | 19.34535 | 103.54920 | 39412 ft | 493 kts | 31° |
| 2026-05-01 11:55 | 19.40096 | 103.59169 | 39412 ft | 492 kts | 31° |
| 2026-05-01 11:55 | 19.45644 | 103.63421 | 39409 ft | 492 kts | 32° |
| 2026-05-01 11:56 | 19.51171 | 103.67706 | 39394 ft | 492 kts | 32° |
| 2026-05-01 11:56 | 19.56656 | 103.71959 | 39404 ft | 493 kts | 32° |
| 2026-05-01 11:57 | 19.62199 | 103.76261 | 39403 ft | 492 kts | 31° |
| 2026-05-01 11:57 | 19.67657 | 103.80501 | 39404 ft | 489 kts | 32° |
| 2026-05-01 11:58 | 19.73182 | 103.84791 | 39407 ft | 489 kts | 32° |
| 2026-05-01 11:59 | 19.81386 | 103.91170 | 39405 ft | 490 kts | 31° |
| 2026-05-01 11:59 | 19.86905 | 103.95463 | 39406 ft | 491 kts | 31° |
| 2026-05-01 12:00 | 19.95168 | 104.01891 | 39114 ft | 491 kts | 31° |
| 2026-05-01 12:00 | 20.00693 | 104.06197 | 38668 ft | 493 kts | 32° |
| 2026-05-01 12:01 | 20.03456 | 104.08366 | 38419 ft | 494 kts | 32° |
| 2026-05-01 12:01 | 20.06223 | 104.10534 | 37973 ft | 495 kts | 32° |
| 2026-05-01 12:01 | 20.09007 | 104.12709 | 37203 ft | 498 kts | 32° |
| 2026-05-01 12:01 | 20.11818 | 104.14902 | 36309 ft | 504 kts | 32° |
| 2026-05-01 12:02 | 20.14651 | 104.17116 | 35555 ft | 505 kts | 32° |
| 2026-05-01 12:02 | 20.17489 | 104.19335 | 34750 ft | 508 kts | 32° |
| 2026-05-01 12:02 | 20.20337 | 104.21564 | 34015 ft | 509 kts | 32° |
| 2026-05-01 12:02 | 20.23199 | 104.23803 | 33237 ft | 509 kts | 33° |
| 2026-05-01 12:03 | 20.26049 | 104.26037 | 32427 ft | 510 kts | 33° |
| 2026-05-01 12:03 | 20.28872 | 104.28249 | 31576 ft | 511 kts | 33° |
| 2026-05-01 12:03 | 20.31738 | 104.30497 | 30717 ft | 513 kts | 33° |
| 2026-05-01 12:03 | 20.34605 | 104.32747 | 30129 ft | 509 kts | 33° |
| 2026-05-01 12:04 | 20.37434 | 104.34969 | 29442 ft | 504 kts | 33° |
| 2026-05-01 12:04 | 20.40244 | 104.37178 | 28881 ft | 497 kts | 33° |
| 2026-05-01 12:04 | 20.43008 | 104.39349 | 28281 ft | 491 kts | 33° |
| 2026-05-01 12:04 | 20.45749 | 104.41490 | 27693 ft | 486 kts | 33° |
| 2026-05-01 12:05 | 20.48476 | 104.43585 | 27095 ft | 481 kts | 32° |
| 2026-05-01 12:05 | 20.53820 | 104.47674 | 25924 ft | 472 kts | 32° |
| 2026-05-01 12:05 | 20.56480 | 104.49713 | 25334 ft | 469 kts | 32° |
| 2026-05-01 12:06 | 20.59119 | 104.51742 | 24749 ft | 466 kts | 33° |
| 2026-05-01 12:06 | 20.61740 | 104.53760 | 24156 ft | 464 kts | 33° |
| 2026-05-01 12:06 | 20.64349 | 104.55769 | 23579 ft | 461 kts | 33° |
| 2026-05-01 12:06 | 20.66933 | 104.57761 | 22946 ft | 456 kts | 32° |
| 2026-05-01 12:07 | 20.69491 | 104.59727 | 22395 ft | 450 kts | 33° |
| 2026-05-01 12:07 | 20.72013 | 104.61676 | 21822 ft | 445 kts | 33° |
| 2026-05-01 12:07 | 20.74503 | 104.63607 | 21251 ft | 440 kts | 33° |
| 2026-05-01 12:07 | 20.76950 | 104.65498 | 20699 ft | 436 kts | 33° |
| 2026-05-01 12:08 | 20.79396 | 104.67388 | 20094 ft | 434 kts | 33° |
| 2026-05-01 12:08 | 20.81662 | 104.69514 | 19567 ft | 433 kts | 46° |
| 2026-05-01 12:08 | 20.83395 | 104.72129 | 19026 ft | 432 kts | 61° |
| 2026-05-01 12:08 | 20.84544 | 104.75091 | 18457 ft | 430 kts | 70° |
| 2026-05-01 12:09 | 20.85556 | 104.78100 | 17860 ft | 428 kts | 70° |
| 2026-05-01 12:09 | 20.86559 | 104.81074 | 17316 ft | 423 kts | 70° |
| 2026-05-01 12:09 | 20.87553 | 104.84020 | 16771 ft | 419 kts | 70° |
| 2026-05-01 12:09 | 20.88537 | 104.86935 | 16216 ft | 415 kts | 70° |
| 2026-05-01 12:10 | 20.89514 | 104.89825 | 15689 ft | 412 kts | 70° |
| 2026-05-01 12:10 | 20.91425 | 104.95490 | 14603 ft | 404 kts | 70° |
| 2026-05-01 12:10 | 20.92377 | 104.98313 | 14090 ft | 402 kts | 70° |
| 2026-05-01 12:11 | 20.94269 | 105.03918 | 13008 ft | 396 kts | 70° |
| 2026-05-01 12:11 | 20.95201 | 105.06659 | 12635 ft | 387 kts | 70° |
| 2026-05-01 12:11 | 20.96147 | 105.09346 | 12348 ft | 387 kts | 70° |
| 2026-05-01 12:12 | 20.97090 | 105.12010 | 12189 ft | 378 kts | 69° |
| 2026-05-01 12:12 | 20.98009 | 105.14598 | 12075 ft | 366 kts | 69° |
| 2026-05-01 12:12 | 20.98892 | 105.17105 | 11932 ft | 353 kts | 70° |
| 2026-05-01 12:12 | 20.99668 | 105.19549 | 11773 ft | 343 kts | 80° |
| 2026-05-01 12:13 | 20.99703 | 105.22048 | 11493 ft | 333 kts | 104° |
| 2026-05-01 12:13 | 20.98877 | 105.24316 | 11092 ft | 322 kts | 128° |
| 2026-05-01 12:13 | 20.97360 | 105.25986 | 10650 ft | 306 kts | 154° |
| 2026-05-01 12:13 | 20.95467 | 105.26760 | 10572 ft | 289 kts | 175° |
| 2026-05-01 12:14 | 20.93456 | 105.27034 | 10476 ft | 292 kts | 179° |
| 2026-05-01 12:14 | 20.91452 | 105.27298 | 10356 ft | 289 kts | 176° |
| 2026-05-01 12:14 | 20.89475 | 105.27686 | 10249 ft | 290 kts | 173° |
| 2026-05-01 12:14 | 20.87507 | 105.28185 | 10133 ft | 291 kts | 171° |
| 2026-05-01 12:15 | 20.85555 | 105.28748 | 10015 ft | 290 kts | 170° |
| 2026-05-01 12:15 | 20.83666 | 105.29548 | 9925 ft | 297 kts | 155° |
| 2026-05-01 12:15 | 20.81989 | 105.30869 | 9801 ft | 303 kts | 141° |
| 2026-05-01 12:15 | 20.80518 | 105.32488 | 9681 ft | 303 kts | 139° |
| 2026-05-01 12:16 | 20.79052 | 105.34095 | 9561 ft | 300 kts | 139° |
| 2026-05-01 12:16 | 20.77609 | 105.35667 | 9498 ft | 301 kts | 139° |
| 2026-05-01 12:16 | 20.76137 | 105.37260 | 9437 ft | 302 kts | 139° |
| 2026-05-01 12:16 | 20.74664 | 105.38855 | 9330 ft | 301 kts | 139° |
| 2026-05-01 12:17 | 20.73212 | 105.40429 | 9218 ft | 300 kts | 139° |
| 2026-05-01 12:17 | 20.71748 | 105.42013 | 9106 ft | 299 kts | 139° |
| 2026-05-01 12:17 | 20.70380 | 105.43687 | 8984 ft | 299 kts | 128° |
| 2026-05-01 12:17 | 20.69449 | 105.45685 | 8877 ft | 304 kts | 111° |
| 2026-05-01 12:18 | 20.68900 | 105.47895 | 8759 ft | 310 kts | 107° |
| 2026-05-01 12:18 | 20.68372 | 105.50111 | 8638 ft | 307 kts | 107° |
| 2026-05-01 12:18 | 20.67848 | 105.52291 | 8522 ft | 301 kts | 107° |
| 2026-05-01 12:18 | 20.67316 | 105.54481 | 8405 ft | 307 kts | 107° |
| 2026-05-01 12:19 | 20.66778 | 105.56683 | 8281 ft | 304 kts | 107° |
| 2026-05-01 12:19 | 20.66309 | 105.58874 | 8169 ft | 304 kts | 97° |
| 2026-05-01 12:19 | 20.66533 | 105.61122 | 8050 ft | 309 kts | 72° |
| 2026-05-01 12:19 | 20.67606 | 105.63090 | 7935 ft | 310 kts | 46° |
| 2026-05-01 12:20 | 20.69365 | 105.64427 | 7809 ft | 305 kts | 20° |
| 2026-05-01 12:20 | 20.71382 | 105.64842 | 7720 ft | 298 kts | 354° |
| 2026-05-01 12:20 | 20.73431 | 105.64589 | 7610 ft | 296 kts | 346° |
| 2026-05-01 12:20 | 20.75460 | 105.64234 | 7493 ft | 296 kts | 348° |
| 2026-05-01 12:21 | 20.77506 | 105.63978 | 7380 ft | 295 kts | 351° |
| 2026-05-01 12:21 | 20.79581 | 105.63841 | 7255 ft | 295 kts | 354° |
| 2026-05-01 12:21 | 20.81611 | 105.63782 | 7142 ft | 296 kts | 355° |
| 2026-05-01 12:21 | 20.83670 | 105.63757 | 7034 ft | 296 kts | 356° |
| 2026-05-01 12:22 | 20.85722 | 105.63745 | 6906 ft | 295 kts | 356° |
| 2026-05-01 12:22 | 20.87774 | 105.63734 | 6801 ft | 294 kts | 356° |
| 2026-05-01 12:22 | 20.89813 | 105.63723 | 6693 ft | 292 kts | 356° |
| 2026-05-01 12:22 | 20.91846 | 105.63710 | 6569 ft | 292 kts | 356° |
| 2026-05-01 12:23 | 20.93885 | 105.63696 | 6460 ft | 293 kts | 356° |
| 2026-05-01 12:23 | 20.95919 | 105.63681 | 6343 ft | 291 kts | 356° |
| 2026-05-01 12:23 | 20.97942 | 105.63666 | 6246 ft | 289 kts | 356° |
| 2026-05-01 12:23 | 20.99916 | 105.63653 | 6184 ft | 279 kts | 356° |
| 2026-05-01 12:24 | 21.01814 | 105.63612 | 6085 ft | 266 kts | 351° |
| 2026-05-01 12:24 | 21.03589 | 105.63250 | 5866 ft | 256 kts | 339° |
| 2026-05-01 12:24 | 21.05284 | 105.62696 | 5537 ft | 255 kts | 340° |
| 2026-05-01 12:24 | 21.06977 | 105.62150 | 5280 ft | 252 kts | 341° |
| 2026-05-01 12:25 | 21.08654 | 105.61617 | 5017 ft | 252 kts | 341° |
| 2026-05-01 12:25 | 21.12052 | 105.60538 | 4495 ft | 254 kts | 342° |
| 2026-05-01 12:25 | 21.13731 | 105.60008 | 4240 ft | 252 kts | 342° |
| 2026-05-01 12:26 | 21.15420 | 105.59475 | 4040 ft | 253 kts | 342° |
| 2026-05-01 12:26 | 21.18676 | 105.59126 | 3872 ft | 225 kts | 21° |
| 2026-05-01 12:26 | 21.20104 | 105.59705 | 3752 ft | 216 kts | 24° |
| 2026-05-01 12:27 | 21.21503 | 105.60271 | 3479 ft | 215 kts | 24° |
| 2026-05-01 12:27 | 21.24289 | 105.61390 | 3006 ft | 213 kts | 24° |
| 2026-05-01 12:28 | 21.26193 | 105.63461 | 2486 ft | 190 kts | 84° |
| 2026-05-01 12:28 | 21.26260 | 105.64852 | 2149 ft | 188 kts | 100° |
| 2026-05-01 12:28 | 21.25714 | 105.67357 | 1954 ft | 158 kts | 111° |
| 2026-05-01 12:29 | 21.25403 | 105.68439 | 1870 ft | 146 kts | 110° |
| 2026-05-01 12:29 | 21.25111 | 105.69455 | 1733 ft | 146 kts | 110° |
| 2026-05-01 12:29 | 21.24532 | 105.71466 | 1372 ft | 140 kts | 110° |
| 2026-05-01 12:30 | 21.23949 | 105.73457 | 927 ft | 135 kts | 110° |
| 2026-05-01 12:30 | 21.23620 | 105.74429 | 721 ft | 149 kts | 109° |
| 2026-05-01 12:30 | 21.23346 | 105.75474 | 619 ft | 143 kts | 105° |
| 2026-05-01 12:31 | 21.23088 | 105.76482 | 552 ft | 141 kts | 108° |
| 2026-05-01 12:31 | 21.22793 | 105.77482 | 285 ft | 138 kts | 108° |
| 2026-05-01 12:31 | 21.22502 | 105.78459 | 125 ft | 139 kts | 108° |
| 2026-05-01 12:31 | 21.22240 | 105.79417 | 51 ft | 127 kts | 109° |
| 2026-05-01 12:32 | 21.22042 | 105.80113 | 49 ft | 69 kts | 107° |
| 2026-05-01 12:32 | 21.21906 | 105.80616 | 49 ft | 32 kts | 108° |
| 2026-05-01 12:32 | 21.21860 | 105.80714 | 50 ft | 11 kts | 154° |
| 2026-05-01 12:33 | 21.21804 | 105.80707 | 50 ft | 0 kts | 187° |
| 2026-05-01 12:33 | 21.21800 | 105.80706 | 50 ft | 2 kts | 187° |
| 2026-05-01 12:33 | 21.21768 | 105.80701 | 50 ft | 7 kts | 191° |
| 2026-05-01 12:34 | 21.21708 | 105.80679 | 50 ft | 11 kts | 200° |
| 2026-05-01 12:34 | 21.21640 | 105.80648 | 50 ft | 8 kts | 242° |
| 2026-05-01 12:34 | 21.21651 | 105.80585 | 48 ft | 11 kts | 281° |
| 2026-05-01 12:34 | 21.21672 | 105.80502 | 50 ft | 10 kts | 283° |
| 2026-05-01 12:35 | 21.21648 | 105.80459 | 50 ft | 0 kts | 227° |
| 2026-05-01 12:35 | 21.21635 | 105.80444 | 50 ft | 5 kts | 225° |
| 2026-05-01 12:35 | 21.21615 | 105.80424 | 50 ft | 2 kts | 222° |
| 2026-05-01 12:35 | 21.21609 | 105.80418 | 50 ft | 0 kts | 221° |
| 2026-05-01 12:36 | 21.21606 | 105.80416 | 50 ft | 0 kts | 221° |